Terminal Aerodrome Forecast
Issued by NWS Sioux Falls, SD

Home | Current Version | Previous Version | Text Only | Print | Product List | Glossary On
Versions: 1 2 3 4 5 6 7 8 9 10 11 12 13 14 15 16 17 18 19
000
FTUS43 KFSD 031559 AAA
TAFSUX
TAF AMD
KSUX 031559Z 0316/0412 14010KT P6SM OVC090
     FM031900 18012KT P6SM -RA OVC045
     FM040000 16008KT P6SM OVC015
     FM040300 17009KT P6SM OVC008
     FM040900 20007KT P6SM OVC025=

USA.gov is the U.S. government's official web portal to all federal, state and local government web resources and services.